Weather at Hydaburg Seaplane Base

Public forecast

Using degrees Fahrenheit for public forecast. Weather courtesy of forecast.io.

Current aviation weather report (METAR) for Hydaburg Seaplane Base

Report is more than 6 hours old.

Retrieved 2020/08/05 19:46 UTC (3 months ago):

PAHY 051946Z AUTO 14010KT 10SM BKN026 BKN037 14/11 A2978 RMK AO2

Closest aviation forecast (TAF) to Hydaburg Seaplane Base

Closest forecast is Klawock Airport, 23.9 nm (44.3 km) NNW. Retrieved 2020-10-24 00:42 UTC (5 hours ago):

TAF PAKW 232340Z 2400/2424 05010KT P6SM FEW200 AMD LTD TO CLD VIS AND WIND